createdAt,value
2019-02-15T00:00:34.782Z,2.29
2019-02-15T00:02:27.753Z,2.25
2019-02-15T00:03:27.805Z,2.26
2019-02-15T00:05:20.782Z,2.28
2019-02-15T00:06:20.833Z,2.26
2019-02-15T00:08:13.801Z,2.25
2019-02-15T00:09:13.853Z,2.24
2019-02-15T00:11:06.829Z,2.24
2019-02-15T00:12:06.878Z,2.17
2019-02-15T00:13:59.853Z,2.14
2019-02-15T00:14:59.906Z,2.14
2019-02-15T00:16:52.890Z,2.18
2019-02-15T00:17:52.937Z,2.20
2019-02-15T00:19:45.910Z,2.22
2019-02-15T00:20:45.961Z,2.11
2019-02-15T00:22:38.940Z,2.24
2019-02-15T00:23:38.987Z,2.36
2019-02-15T00:25:31.982Z,2.17
2019-02-15T00:26:32.015Z,2.18
2019-02-15T00:28:24.993Z,2.15
2019-02-15T00:29:25.045Z,2.13
2019-02-15T00:31:18.026Z,2.08
2019-02-15T00:32:18.072Z,2.06
2019-02-15T00:34:11.039Z,2.17
2019-02-15T00:35:11.096Z,2.14
2019-02-15T00:37:04.076Z,2.17
2019-02-15T00:38:04.118Z,2.08
2019-02-15T00:39:57.091Z,2.07
2019-02-15T00:40:57.137Z,2.06
2019-02-15T00:42:50.121Z,2.17
2019-02-15T00:43:50.167Z,2.18
2019-02-15T00:45:43.148Z,2.24
2019-02-15T00:46:43.198Z,2.13
2019-02-15T00:48:36.170Z,2.11
2019-02-15T00:49:36.221Z,2.00
2019-02-15T00:51:29.197Z,2.11
2019-02-15T00:52:29.244Z,2.00
2019-02-15T00:54:22.239Z,2.06
2019-02-15T00:55:22.269Z,2.06
2019-02-15T00:57:15.251Z,2.06
2019-02-15T00:58:15.298Z,1.89
2019-02-15T01:00:08.270Z,1.95
2019-02-15T01:01:08.324Z,1.91
2019-02-15T01:03:01.303Z,2.07
2019-02-15T01:04:01.349Z,1.94
2019-02-15T01:05:54.327Z,1.92
2019-02-15T01:06:54.372Z,2.04
2019-02-15T01:08:47.343Z,1.89
2019-02-15T01:09:47.395Z,1.91
2019-02-15T01:11:40.370Z,1.94
2019-02-15T01:12:40.418Z,1.92
2019-02-15T01:14:33.388Z,1.94
2019-02-15T01:15:33.444Z,1.92
2019-02-15T01:17:26.434Z,1.95
2019-02-15T01:18:26.472Z,1.92
2019-02-15T01:20:19.443Z,1.99
2019-02-15T01:21:19.491Z,1.95
2019-02-15T01:23:12.482Z,2.00
2019-02-15T01:24:12.523Z,1.91
2019-02-15T01:26:05.562Z,1.95
2019-02-15T01:27:05.553Z,2.04
2019-02-15T01:28:58.531Z,1.94
2019-02-15T01:29:58.580Z,1.95
2019-02-15T01:31:51.560Z,1.87
2019-02-15T01:32:51.619Z,1.89
2019-02-15T01:34:44.579Z,1.80
2019-02-15T01:35:44.633Z,1.91
2019-02-15T01:37:37.618Z,1.87
2019-02-15T01:38:37.655Z,1.77
2019-02-15T01:40:30.632Z,1.74
2019-02-15T01:41:30.683Z,1.70
2019-02-15T01:43:23.658Z,1.80
2019-02-15T01:44:23.847Z,1.68
2019-02-15T01:46:16.682Z,1.68
2019-02-15T01:47:16.730Z,1.70
2019-02-15T01:49:09.706Z,1.63
2019-02-15T01:50:09.764Z,1.77
2019-02-15T01:52:02.739Z,1.67
2019-02-15T01:53:02.784Z,1.71
2019-02-15T01:54:55.758Z,1.71
2019-02-15T01:55:55.806Z,1.68
2019-02-15T01:57:48.785Z,1.60
2019-02-15T01:58:48.833Z,1.58
2019-02-15T02:00:41.803Z,1.62
2019-02-15T02:01:41.859Z,1.59
2019-02-15T02:03:34.834Z,1.62
2019-02-15T02:04:34.881Z,1.62
2019-02-15T02:06:27.856Z,1.60
2019-02-15T02:07:27.909Z,1.62
2019-02-15T02:09:20.879Z,1.59
2019-02-15T02:10:20.932Z,1.58
2019-02-15T02:12:13.912Z,1.73
2019-02-15T02:13:13.961Z,1.58
2019-02-15T02:15:06.927Z,1.52
2019-02-15T02:16:06.979Z,1.58
2019-02-15T02:17:59.959Z,1.52
2019-02-15T02:19:00.009Z,1.60
2019-02-15T02:20:52.990Z,1.55
2019-02-15T02:21:53.046Z,1.49
2019-02-15T02:23:46.018Z,1.48
2019-02-15T02:24:46.066Z,1.59
2019-02-15T02:26:39.059Z,1.59
2019-02-15T02:27:39.133Z,1.53
2019-02-15T02:29:32.098Z,1.49
2019-02-15T02:30:32.139Z,1.52
2019-02-15T02:32:25.143Z,1.50
2019-02-15T02:33:25.184Z,1.49
2019-02-15T02:35:18.176Z,1.41
2019-02-15T02:36:18.216Z,1.44
2019-02-15T02:38:11.187Z,1.45
2019-02-15T02:39:11.234Z,1.52
2019-02-15T02:41:04.203Z,1.52
2019-02-15T02:42:04.256Z,1.52
2019-02-15T02:43:59.588Z,1.52
2019-02-15T02:44:57.281Z,1.48
2019-02-15T02:46:50.254Z,1.48
2019-02-15T02:47:50.304Z,1.50
2019-02-15T02:49:43.286Z,1.41
2019-02-15T02:50:43.334Z,1.50
2019-02-15T02:52:36.323Z,1.50
2019-02-15T02:53:36.363Z,1.50
2019-02-15T02:55:29.335Z,1.48
2019-02-15T02:56:29.382Z,1.42
2019-02-15T02:58:22.376Z,1.48
2019-02-15T02:59:22.425Z,1.49
2019-02-15T03:01:15.407Z,1.50
2019-02-15T03:02:15.453Z,1.50
2019-02-15T03:04:08.435Z,1.40
2019-02-15T03:05:08.474Z,1.41
2019-02-15T03:07:01.439Z,1.38
2019-02-15T03:08:01.497Z,1.41
2019-02-15T03:09:54.492Z,1.48
2019-02-15T03:10:54.521Z,1.42
2019-02-15T03:12:47.498Z,1.41
2019-02-15T03:13:47.548Z,1.35
2019-02-15T03:15:40.530Z,1.37
2019-02-15T03:16:40.576Z,1.30
2019-02-15T03:18:33.554Z,1.35
2019-02-15T03:19:33.607Z,1.24
2019-02-15T03:21:26.578Z,1.34
2019-02-15T03:22:26.626Z,1.23
2019-02-15T03:24:19.609Z,1.31
2019-02-15T03:25:19.649Z,1.32
2019-02-15T03:27:12.640Z,1.24
2019-02-15T03:28:12.674Z,1.26
2019-02-15T03:30:05.652Z,1.35
2019-02-15T03:31:05.698Z,1.34
2019-02-15T03:32:58.676Z,1.28
2019-02-15T03:33:58.719Z,1.32
2019-02-15T03:35:51.689Z,1.34
2019-02-15T03:36:51.742Z,1.24
2019-02-15T03:38:44.719Z,1.17
2019-02-15T03:39:44.815Z,1.16
2019-02-15T03:41:37.734Z,1.19
2019-02-15T03:42:37.791Z,1.19
2019-02-15T03:44:30.777Z,1.10
2019-02-15T03:45:30.809Z,1.10
2019-02-15T03:47:24.289Z,1.14
2019-02-15T03:48:24.338Z,1.16
2019-02-15T03:50:17.315Z,1.16
2019-02-15T03:51:17.364Z,1.16
2019-02-15T03:53:10.348Z,1.12
2019-02-15T03:54:10.397Z,1.12
2019-02-15T03:56:03.393Z,1.14
2019-02-15T03:57:03.453Z,1.14
2019-02-15T03:58:56.422Z,1.13
2019-02-15T03:59:56.468Z,1.19
2019-02-15T04:01:49.438Z,1.14
2019-02-15T04:02:49.496Z,1.13
2019-02-15T04:04:42.465Z,1.02
2019-02-15T04:05:42.522Z,1.06
2019-02-15T04:07:35.491Z,1.01
2019-02-15T04:08:35.538Z,0.98
2019-02-15T04:10:28.514Z,0.96
2019-02-15T04:11:28.561Z,0.95
2019-02-15T04:13:21.546Z,0.99
2019-02-15T04:14:32.265Z,0.92
2019-02-15T04:16:14.560Z,0.95
2019-02-15T04:17:14.615Z,0.95
2019-02-15T04:19:07.595Z,0.98
2019-02-15T04:20:07.645Z,1.01
2019-02-15T04:22:00.608Z,1.01
2019-02-15T04:23:00.659Z,0.95
2019-02-15T04:24:53.635Z,0.96
2019-02-15T04:25:53.679Z,0.95
2019-02-15T04:27:46.648Z,1.01
2019-02-15T04:28:46.702Z,1.06
2019-02-15T04:30:39.700Z,0.95
2019-02-15T04:31:39.741Z,1.01
2019-02-15T04:33:32.717Z,0.98
2019-02-15T04:34:32.764Z,0.96
2019-02-15T04:36:25.751Z,1.01
2019-02-15T04:37:25.795Z,1.01
2019-02-15T04:39:18.764Z,1.02
2019-02-15T04:40:18.810Z,0.94
2019-02-15T04:42:11.785Z,0.94
2019-02-15T04:43:11.834Z,0.96
2019-02-15T04:45:04.818Z,0.92
2019-02-15T04:46:04.863Z,1.01
2019-02-15T04:47:58.340Z,0.88
2019-02-15T04:48:58.390Z,0.88
2019-02-15T04:50:51.366Z,0.88
2019-02-15T04:51:51.413Z,0.94
2019-02-15T04:53:44.389Z,0.91
2019-02-15T04:54:44.438Z,0.92
2019-02-15T04:56:37.402Z,0.94
2019-02-15T04:57:37.453Z,0.78
2019-02-15T04:59:30.431Z,0.94
2019-02-15T05:00:30.477Z,0.94
2019-02-15T05:02:23.469Z,0.87
2019-02-15T05:03:23.502Z,0.91
2019-02-15T05:05:16.476Z,0.83
2019-02-15T05:06:16.524Z,0.80
2019-02-15T05:08:09.493Z,0.81
2019-02-15T05:09:09.545Z,0.77
2019-02-15T05:11:02.521Z,0.86
2019-02-15T05:12:02.564Z,0.86
2019-02-15T05:13:55.549Z,0.91
2019-02-15T05:14:55.602Z,0.77
2019-02-15T05:16:48.558Z,0.81
2019-02-15T05:17:48.612Z,0.81
2019-02-15T05:19:41.606Z,0.81
2019-02-15T05:20:41.630Z,0.83
2019-02-15T05:22:34.603Z,0.80
2019-02-15T05:23:34.651Z,0.78
2019-02-15T05:25:27.655Z,0.83
2019-02-15T05:26:27.679Z,0.80
2019-02-15T05:28:20.646Z,0.78
2019-02-15T05:29:20.708Z,0.70
2019-02-15T05:31:13.683Z,0.76
2019-02-15T05:32:13.723Z,0.78
2019-02-15T05:34:06.703Z,0.73
2019-02-15T05:35:06.770Z,0.80
2019-02-15T05:36:59.723Z,0.74
2019-02-15T05:37:59.772Z,0.74
2019-02-15T05:39:52.750Z,0.81
2019-02-15T05:40:52.799Z,0.86
2019-02-15T05:42:45.769Z,0.77
2019-02-15T05:43:45.819Z,0.81
2019-02-15T05:45:39.651Z,0.88
2019-02-15T05:46:39.708Z,0.80
2019-02-15T05:48:32.664Z,0.74
2019-02-15T05:49:32.719Z,0.70
2019-02-15T05:51:25.694Z,0.74
2019-02-15T05:52:25.736Z,0.68
2019-02-15T05:54:18.724Z,0.77
2019-02-15T05:55:19.747Z,0.69
2019-02-15T05:57:11.739Z,0.81
2019-02-15T05:58:11.792Z,0.78
2019-02-15T06:00:04.766Z,0.80
2019-02-15T06:01:04.815Z,0.65
2019-02-15T06:02:57.779Z,0.63
2019-02-15T06:03:57.836Z,0.66
2019-02-15T06:05:50.802Z,0.74
2019-02-15T06:06:50.852Z,0.65
2019-02-15T06:08:43.837Z,0.74
2019-02-15T06:09:43.877Z,0.68
2019-02-15T06:11:36.859Z,0.69
2019-02-15T06:12:36.894Z,0.66
2019-02-15T06:14:30.386Z,0.60
2019-02-15T06:15:30.432Z,0.56
2019-02-15T06:17:23.427Z,0.63
2019-02-15T06:18:23.461Z,0.66
2019-02-15T06:20:16.467Z,0.65
2019-02-15T06:21:16.485Z,0.76
2019-02-15T06:23:09.458Z,0.74
2019-02-15T06:24:09.510Z,0.70
2019-02-15T06:26:02.487Z,0.68
2019-02-15T06:27:02.535Z,0.70
2019-02-15T06:28:55.501Z,0.69
2019-02-15T06:29:55.558Z,0.68
2019-02-15T06:31:48.529Z,0.73
2019-02-15T06:32:48.574Z,0.73
2019-02-15T06:34:41.547Z,0.68
2019-02-15T06:35:41.595Z,0.63
2019-02-15T06:37:34.587Z,0.74
2019-02-15T06:38:35.262Z,0.68
2019-02-15T06:40:27.622Z,0.76
2019-02-15T06:41:27.668Z,0.69
2019-02-15T06:43:20.636Z,0.70
2019-02-15T06:44:20.688Z,0.63
2019-02-15T06:46:13.664Z,0.68
2019-02-15T06:47:13.763Z,0.65
2019-02-15T06:49:06.687Z,0.66
2019-02-15T06:50:06.744Z,0.65
2019-02-15T06:51:59.729Z,0.73
2019-02-15T06:52:59.779Z,0.69
2019-02-15T06:54:52.765Z,0.69
2019-02-15T06:55:52.813Z,0.74
2019-02-15T06:57:45.780Z,0.69
2019-02-15T06:58:45.986Z,0.68
2019-02-15T07:00:38.808Z,0.83
2019-02-15T07:01:38.858Z,0.74
2019-02-15T07:03:31.821Z,0.78
2019-02-15T07:04:31.880Z,0.81
2019-02-15T07:06:24.855Z,0.83
2019-02-15T07:07:24.906Z,0.91
2019-02-15T07:09:17.870Z,0.87
2019-02-15T07:10:17.922Z,0.80
2019-02-15T07:12:10.904Z,0.92
2019-02-15T07:13:10.949Z,0.86
2019-02-15T07:15:03.933Z,0.94
2019-02-15T07:16:03.980Z,0.94
2019-02-15T07:17:56.945Z,0.87
2019-02-15T07:18:57.002Z,0.94
2019-02-15T07:20:49.973Z,0.95
2019-02-15T07:21:50.026Z,0.95
2019-02-15T07:23:43.008Z,0.95
2019-02-15T07:24:43.053Z,0.88
2019-02-15T07:26:36.038Z,1.02
2019-02-15T07:27:36.080Z,0.99
2019-02-15T07:29:29.052Z,1.02
2019-02-15T07:30:29.100Z,1.02
2019-02-15T07:32:22.091Z,1.16
2019-02-15T07:33:22.132Z,1.10
2019-02-15T07:35:15.118Z,1.17
2019-02-15T07:36:15.157Z,1.19
2019-02-15T07:38:08.123Z,1.20
2019-02-15T07:39:08.179Z,1.22
2019-02-15T07:41:01.195Z,1.17
2019-02-15T07:42:01.196Z,1.17
2019-02-15T07:43:54.198Z,1.24
2019-02-15T07:44:54.250Z,1.24
2019-02-15T07:46:47.222Z,1.42
2019-02-15T07:47:47.275Z,1.41
2019-02-15T07:49:40.240Z,1.37
2019-02-15T07:50:40.289Z,1.41
2019-02-15T07:52:33.268Z,1.42
2019-02-15T07:53:33.314Z,1.48
2019-02-15T07:55:26.303Z,1.60
2019-02-15T07:56:26.338Z,1.78
2019-02-15T07:58:19.305Z,2.98
2019-02-15T07:59:19.359Z,4.49
2019-02-15T08:01:12.341Z,6.88
2019-02-15T08:02:12.383Z,7.82
2019-02-15T08:04:06.830Z,9.11
2019-02-15T08:05:05.412Z,9.72
2019-02-15T08:06:58.389Z,10.53
2019-02-15T08:07:58.436Z,10.92
2019-02-15T08:09:51.405Z,11.57
2019-02-15T08:10:51.462Z,11.77
2019-02-15T08:12:44.449Z,12.09
2019-02-15T08:13:44.490Z,12.13
2019-02-15T08:15:37.470Z,12.24
2019-02-15T08:16:38.782Z,12.15
2019-02-15T08:18:30.494Z,12.39
2019-02-15T08:19:30.548Z,12.67
2019-02-15T08:21:23.530Z,12.65
2019-02-15T08:22:23.581Z,12.79
2019-02-15T08:24:16.595Z,12.94
2019-02-15T08:25:16.612Z,13.18
2019-02-15T08:27:09.592Z,13.28
2019-02-15T08:28:09.645Z,13.53
2019-02-15T08:30:02.617Z,13.89
2019-02-15T08:31:02.674Z,13.97
2019-02-15T08:32:55.656Z,14.22
2019-02-15T08:33:55.704Z,14.40
2019-02-15T08:35:48.694Z,14.50
2019-02-15T08:36:48.754Z,14.73
2019-02-15T08:38:41.741Z,14.96
2019-02-15T08:39:41.797Z,15.02
2019-02-15T08:41:34.777Z,15.00
2019-02-15T08:42:34.827Z,15.31
2019-02-15T08:44:27.811Z,15.55
2019-02-15T08:45:27.865Z,15.72
2019-02-15T08:47:20.854Z,15.98
2019-02-15T08:48:20.901Z,15.92
2019-02-15T08:50:13.914Z,16.17
2019-02-15T08:51:13.974Z,16.21
2019-02-15T08:53:06.961Z,16.39
2019-02-15T08:54:07.012Z,16.51
2019-02-15T08:56:00.001Z,16.79
2019-02-15T08:57:00.054Z,16.87
2019-02-15T08:58:53.045Z,16.96
2019-02-15T08:59:53.096Z,16.94
2019-02-15T09:01:46.084Z,17.06
2019-02-15T09:02:46.131Z,17.14
2019-02-15T09:04:39.125Z,16.76
2019-02-15T09:05:39.180Z,16.51
2019-02-15T09:07:32.162Z,16.65
2019-02-15T09:08:32.217Z,16.74
2019-02-15T09:10:25.194Z,15.79
2019-02-15T09:11:25.252Z,15.68
2019-02-15T09:13:18.239Z,15.92
2019-02-15T09:14:18.288Z,16.17
2019-02-15T09:16:11.271Z,16.02
2019-02-15T09:17:11.325Z,15.47
2019-02-15T09:19:04.312Z,14.91
2019-02-15T09:20:04.364Z,14.68
2019-02-15T09:21:57.354Z,14.14
2019-02-15T09:22:57.401Z,14.04
2019-02-15T09:24:50.399Z,13.42
2019-02-15T09:25:50.440Z,13.15
2019-02-15T09:27:43.427Z,12.32
2019-02-15T09:28:43.488Z,11.62
2019-02-15T09:30:36.463Z,11.02
2019-02-15T09:31:36.519Z,10.82
2019-02-15T09:33:29.506Z,10.35
2019-02-15T09:34:29.555Z,10.17
2019-02-15T09:36:22.540Z,10.04
2019-02-15T09:37:22.594Z,10.01
2019-02-15T09:39:15.584Z,9.99
2019-02-15T09:40:15.630Z,10.01
2019-02-15T09:42:08.618Z,9.94
2019-02-15T09:43:08.667Z,9.99
2019-02-15T09:45:01.647Z,9.97
2019-02-15T09:46:01.705Z,9.98
2019-02-15T09:47:54.687Z,10.01
2019-02-15T09:48:54.735Z,10.13
2019-02-15T09:50:47.714Z,10.12
2019-02-15T09:51:47.771Z,10.15
2019-02-15T09:53:40.761Z,10.12
2019-02-15T09:54:40.811Z,10.12
2019-02-15T09:56:33.789Z,10.20
2019-02-15T09:57:33.846Z,10.26
2019-02-15T09:59:26.836Z,10.25
2019-02-15T10:00:26.886Z,10.31
2019-02-15T10:02:19.929Z,10.46
2019-02-15T10:03:19.943Z,10.54
2019-02-15T10:05:12.917Z,10.54
2019-02-15T10:06:12.974Z,10.60
2019-02-15T10:08:05.972Z,10.75
2019-02-15T10:09:06.008Z,10.69
2019-02-15T10:10:59.001Z,10.84
2019-02-15T10:11:59.042Z,11.00
2019-02-15T10:13:52.049Z,11.02
2019-02-15T10:14:52.108Z,11.08
2019-02-15T10:16:45.072Z,11.18
2019-02-15T10:17:45.128Z,11.19
2019-02-15T10:19:38.108Z,11.27
2019-02-15T10:20:38.159Z,11.30
2019-02-15T10:22:31.142Z,11.51
2019-02-15T10:23:31.191Z,11.55
2019-02-15T10:25:24.189Z,11.54
2019-02-15T10:26:24.242Z,11.60
2019-02-15T10:28:17.226Z,11.52
2019-02-15T10:29:17.280Z,11.68
2019-02-15T10:31:10.255Z,11.75
2019-02-15T10:32:10.311Z,11.75
2019-02-15T10:34:03.292Z,11.87
2019-02-15T10:35:03.351Z,11.94
2019-02-15T10:36:56.321Z,12.02
2019-02-15T10:37:56.379Z,12.06
2019-02-15T10:39:49.368Z,12.09
2019-02-15T10:40:49.419Z,12.10
2019-02-15T10:42:42.912Z,12.10
2019-02-15T10:43:42.962Z,12.18
2019-02-15T10:45:35.941Z,12.28
2019-02-15T10:46:37.897Z,12.27
2019-02-15T10:48:28.986Z,12.37
2019-02-15T10:49:29.033Z,12.43
2019-02-15T10:51:22.013Z,12.53
2019-02-15T10:52:22.074Z,12.49
2019-02-15T10:54:15.056Z,12.54
2019-02-15T10:55:15.107Z,12.68
2019-02-15T10:57:08.149Z,12.65
2019-02-15T10:58:08.146Z,12.72
2019-02-15T11:00:01.132Z,12.79
2019-02-15T11:01:01.181Z,12.87
2019-02-15T11:02:54.173Z,12.93
2019-02-15T11:03:54.217Z,12.91
2019-02-15T11:05:47.198Z,13.00
2019-02-15T11:06:47.289Z,12.98
2019-02-15T11:08:40.765Z,13.04
2019-02-15T11:09:40.810Z,13.00
2019-02-15T11:11:33.807Z,13.18
2019-02-15T11:12:33.849Z,13.13
2019-02-15T11:14:26.843Z,13.20
2019-02-15T11:15:26.896Z,13.20
2019-02-15T11:17:19.872Z,13.33
2019-02-15T11:18:19.931Z,13.39
2019-02-15T11:20:12.970Z,13.52
2019-02-15T11:21:12.968Z,13.52
2019-02-15T11:23:05.957Z,13.56
2019-02-15T11:24:06.006Z,13.53
2019-02-15T11:25:58.986Z,13.63
2019-02-15T11:26:59.040Z,13.67
2019-02-15T11:28:52.031Z,13.74
2019-02-15T11:29:52.078Z,13.70
2019-02-15T11:31:45.062Z,13.89
2019-02-15T11:32:45.116Z,13.81
2019-02-15T11:34:38.100Z,13.89
2019-02-15T11:35:38.154Z,13.96
2019-02-15T11:37:31.133Z,13.96
2019-02-15T11:38:31.189Z,13.97
2019-02-15T11:40:24.178Z,13.93
2019-02-15T11:41:24.227Z,14.10
2019-02-15T11:43:17.220Z,14.07
2019-02-15T11:44:17.272Z,14.14
2019-02-15T11:46:10.264Z,14.17
2019-02-15T11:47:10.323Z,14.28
2019-02-15T11:49:03.316Z,14.15
2019-02-15T11:50:03.360Z,14.20
2019-02-15T11:51:56.351Z,14.22
2019-02-15T11:52:56.402Z,14.30
2019-02-15T11:54:49.384Z,14.37
2019-02-15T11:55:49.457Z,14.50
2019-02-15T11:57:42.426Z,14.66
2019-02-15T11:58:42.485Z,14.59
2019-02-15T12:00:35.473Z,14.62
2019-02-15T12:01:35.533Z,14.58
2019-02-15T12:03:28.519Z,14.60
2019-02-15T12:04:28.573Z,14.68
2019-02-15T12:06:21.587Z,14.73
2019-02-15T12:07:21.612Z,14.85
2019-02-15T12:09:14.610Z,14.86
2019-02-15T12:10:14.676Z,14.96
2019-02-15T12:12:10.822Z,14.86
2019-02-15T12:13:07.691Z,15.00
2019-02-15T12:15:00.690Z,14.96
2019-02-15T12:16:00.742Z,15.02
2019-02-15T12:17:53.726Z,15.06
2019-02-15T12:18:53.803Z,15.04
2019-02-15T12:20:46.774Z,15.07
2019-02-15T12:21:46.829Z,15.03
2019-02-15T12:23:39.860Z,15.18
2019-02-15T12:24:39.871Z,15.14
2019-02-15T12:26:32.859Z,15.37
2019-02-15T12:27:32.918Z,15.37
2019-02-15T12:29:25.909Z,15.39
2019-02-15T12:30:25.960Z,15.49
2019-02-15T12:32:18.951Z,15.44
2019-02-15T12:33:19.005Z,15.42
2019-02-15T12:35:12.008Z,15.42
2019-02-15T12:36:12.043Z,15.43
2019-02-15T12:38:05.023Z,15.43
2019-02-15T12:39:05.082Z,15.59
2019-02-15T12:40:58.072Z,15.67
2019-02-15T12:41:58.123Z,15.61
2019-02-15T12:43:51.115Z,15.65
2019-02-15T12:44:51.166Z,15.65
2019-02-15T12:46:44.157Z,15.67
2019-02-15T12:47:44.214Z,15.70
2019-02-15T12:49:37.207Z,15.79
2019-02-15T12:50:37.257Z,15.77
2019-02-15T12:52:30.245Z,15.79
2019-02-15T12:53:30.301Z,15.83
2019-02-15T12:55:23.293Z,15.97
2019-02-15T12:56:23.345Z,15.91
2019-02-15T12:58:16.333Z,15.97
2019-02-15T12:59:16.394Z,16.05
2019-02-15T13:01:09.384Z,15.94
2019-02-15T13:02:09.440Z,15.94
2019-02-15T13:04:02.428Z,15.95
2019-02-15T13:05:02.490Z,16.09
2019-02-15T13:06:55.504Z,15.91
2019-02-15T13:07:55.560Z,15.95
2019-02-15T13:09:48.550Z,16.10
2019-02-15T13:10:48.604Z,16.20
2019-02-15T13:12:41.586Z,16.12
2019-02-15T13:13:41.648Z,16.16
2019-02-15T13:15:34.639Z,16.23
2019-02-15T13:16:34.687Z,16.31
2019-02-15T13:18:27.670Z,16.20
2019-02-15T13:19:27.726Z,16.26
2019-02-15T13:21:20.725Z,16.15
2019-02-15T13:22:20.769Z,16.28
2019-02-15T13:24:13.754Z,16.23
2019-02-15T13:25:13.819Z,16.29
2019-02-15T13:27:08.310Z,16.31
2019-02-15T13:28:08.368Z,16.28
2019-02-15T13:30:01.362Z,16.38
2019-02-15T13:31:01.411Z,16.31
2019-02-15T13:32:54.415Z,16.38
2019-02-15T13:33:54.457Z,16.39
2019-02-15T13:35:47.958Z,16.46
2019-02-15T13:36:48.001Z,16.53
2019-02-15T13:38:40.986Z,16.53
2019-02-15T13:39:41.228Z,16.53
2019-02-15T13:41:34.038Z,16.50
2019-02-15T13:42:34.092Z,16.51
2019-02-15T13:44:27.083Z,16.64
2019-02-15T13:45:29.395Z,16.65
2019-02-15T13:47:20.122Z,16.53
2019-02-15T13:48:20.182Z,16.51
2019-02-15T13:50:13.227Z,16.53
2019-02-15T13:51:13.231Z,16.65
2019-02-15T13:53:06.210Z,16.66
2019-02-15T13:54:06.270Z,16.65
2019-02-15T13:55:59.260Z,16.65
2019-02-15T13:56:59.316Z,16.66
2019-02-15T13:58:52.289Z,16.61
2019-02-15T13:59:52.352Z,16.64
2019-02-15T14:01:45.358Z,16.60
2019-02-15T14:02:45.393Z,16.72
2019-02-15T14:04:38.393Z,16.76
2019-02-15T14:05:38.448Z,16.76
2019-02-15T14:07:31.435Z,16.68
2019-02-15T14:08:31.494Z,16.68
2019-02-15T14:10:24.501Z,16.75
2019-02-15T14:11:24.555Z,16.89
2019-02-15T14:13:18.045Z,16.84
2019-02-15T14:14:18.093Z,16.89
2019-02-15T14:16:11.145Z,17.02
2019-02-15T14:17:11.161Z,16.99
2019-02-15T14:19:04.147Z,17.06
2019-02-15T14:20:04.208Z,17.05
2019-02-15T14:21:57.214Z,17.05
2019-02-15T14:22:57.258Z,17.14
2019-02-15T14:24:50.251Z,17.04
2019-02-15T14:25:50.302Z,17.05
2019-02-15T14:27:44.792Z,17.15
2019-02-15T14:28:44.911Z,17.22
2019-02-15T14:30:37.846Z,17.08
2019-02-15T14:31:37.894Z,17.20
2019-02-15T14:33:30.886Z,17.26
2019-02-15T14:34:30.937Z,17.23
2019-02-15T14:36:23.931Z,17.24
2019-02-15T14:37:23.979Z,17.11
2019-02-15T14:39:16.966Z,17.24
2019-02-15T14:40:17.023Z,17.31
2019-02-15T14:42:10.015Z,17.23
2019-02-15T14:43:10.064Z,17.19
2019-02-15T14:45:03.061Z,17.24
2019-02-15T14:46:03.107Z,17.23
2019-02-15T14:47:56.102Z,17.15
2019-02-15T14:48:56.155Z,17.12
2019-02-15T14:50:49.148Z,17.06
2019-02-15T14:51:49.196Z,17.02
2019-02-15T14:53:42.184Z,17.15
2019-02-15T14:54:42.246Z,17.16
2019-02-15T14:56:35.251Z,17.19
2019-02-15T14:57:35.299Z,17.15
2019-02-15T14:59:28.281Z,17.22
2019-02-15T15:00:28.369Z,17.20
2019-02-15T15:02:21.334Z,17.19
2019-02-15T15:03:21.395Z,17.15
2019-02-15T15:05:14.380Z,17.22
2019-02-15T15:06:14.432Z,17.12
2019-02-15T15:08:07.424Z,17.06
2019-02-15T15:09:07.477Z,16.99
2019-02-15T15:11:00.473Z,17.09
2019-02-15T15:12:00.534Z,17.06
2019-02-15T15:13:53.511Z,17.09
2019-02-15T15:14:53.574Z,17.06
2019-02-15T15:16:46.568Z,17.06
2019-02-15T15:17:46.616Z,17.08
2019-02-15T15:19:39.601Z,17.02
2019-02-15T15:20:39.661Z,17.19
2019-02-15T15:22:32.668Z,17.09
2019-02-15T15:23:32.723Z,16.99
2019-02-15T15:25:25.711Z,16.99
2019-02-15T15:26:25.765Z,16.84
2019-02-15T15:28:18.760Z,16.81
2019-02-15T15:29:18.813Z,16.71
2019-02-15T15:31:11.813Z,16.83
2019-02-15T15:32:11.856Z,16.79
2019-02-15T15:34:04.849Z,16.90
2019-02-15T15:35:04.900Z,16.97
2019-02-15T15:36:57.904Z,16.97
2019-02-15T15:37:57.958Z,16.96
2019-02-15T15:39:50.952Z,16.84
2019-02-15T15:40:51.001Z,16.83
2019-02-15T15:42:43.994Z,16.75
2019-02-15T15:43:44.043Z,16.79
2019-02-15T15:45:37.051Z,16.71
2019-02-15T15:46:37.092Z,16.64
2019-02-15T15:48:30.081Z,16.60
2019-02-15T15:49:30.141Z,16.61
2019-02-15T15:51:23.136Z,16.56
2019-02-15T15:52:23.191Z,16.60
2019-02-15T15:54:16.184Z,16.60
2019-02-15T15:55:17.733Z,16.60
2019-02-15T15:57:09.240Z,16.49
2019-02-15T15:58:09.297Z,16.56
2019-02-15T16:00:02.280Z,16.49
2019-02-15T16:01:02.340Z,16.38
2019-02-15T16:02:55.335Z,16.43
2019-02-15T16:03:55.411Z,16.35
2019-02-15T16:05:48.380Z,16.31
2019-02-15T16:06:48.432Z,16.17
2019-02-15T16:08:41.413Z,16.20
2019-02-15T16:09:41.473Z,16.17
2019-02-15T16:11:34.464Z,16.13
2019-02-15T16:12:34.513Z,16.00
2019-02-15T16:14:27.492Z,16.04
2019-02-15T16:15:27.556Z,16.00
2019-02-15T16:17:20.544Z,15.91
2019-02-15T16:18:20.605Z,15.83
2019-02-15T16:20:13.612Z,15.76
2019-02-15T16:21:13.679Z,15.76
2019-02-15T16:23:06.664Z,15.65
2019-02-15T16:24:12.765Z,15.54
2019-02-15T16:25:59.709Z,15.46
2019-02-15T16:26:59.757Z,15.46
2019-02-15T16:28:52.770Z,15.44
2019-02-15T16:29:52.809Z,15.36
2019-02-15T16:31:45.807Z,15.37
2019-02-15T16:32:45.860Z,15.39
2019-02-15T16:34:38.840Z,15.24
2019-02-15T16:35:38.908Z,15.15
2019-02-15T16:37:31.892Z,14.97
2019-02-15T16:38:31.942Z,14.89
2019-02-15T16:40:24.924Z,14.68
2019-02-15T16:41:24.982Z,14.72
2019-02-15T16:43:17.972Z,14.53
2019-02-15T16:44:18.025Z,14.40
2019-02-15T16:46:11.016Z,14.05
2019-02-15T16:47:11.067Z,14.00
2019-02-15T16:49:04.057Z,13.70
2019-02-15T16:50:04.119Z,13.54
2019-02-15T16:51:57.113Z,13.28
2019-02-15T16:52:57.164Z,13.08
2019-02-15T16:54:50.154Z,12.97
2019-02-15T16:55:50.206Z,12.83
2019-02-15T16:57:43.239Z,12.64
2019-02-15T16:58:43.247Z,12.50
2019-02-15T17:00:36.229Z,12.36
2019-02-15T17:01:36.298Z,12.20
2019-02-15T17:03:29.276Z,12.10
2019-02-15T17:04:29.328Z,12.06
2019-02-15T17:06:23.380Z,11.88
2019-02-15T17:07:22.370Z,11.94
2019-02-15T17:09:15.375Z,11.73
2019-02-15T17:10:15.422Z,11.69
2019-02-15T17:12:08.423Z,11.55
2019-02-15T17:13:08.455Z,11.54
2019-02-15T17:15:01.435Z,11.35
2019-02-15T17:16:01.487Z,11.45
2019-02-15T17:17:54.497Z,11.45
2019-02-15T17:18:54.542Z,11.41
2019-02-15T17:20:47.551Z,11.44
2019-02-15T17:21:47.583Z,11.44
2019-02-15T17:23:40.576Z,11.45
2019-02-15T17:24:40.620Z,11.43
2019-02-15T17:26:33.607Z,11.30
2019-02-15T17:27:33.658Z,11.25
2019-02-15T17:29:26.649Z,11.12
2019-02-15T17:30:26.699Z,11.05
2019-02-15T17:32:19.693Z,11.12
2019-02-15T17:33:19.745Z,11.08
2019-02-15T17:35:12.735Z,11.08
2019-02-15T17:36:12.807Z,11.00
2019-02-15T17:38:05.838Z,10.89
2019-02-15T17:39:05.830Z,10.75
2019-02-15T17:40:58.848Z,10.68
2019-02-15T17:41:58.870Z,10.67
2019-02-15T17:43:51.863Z,10.51
2019-02-15T17:44:51.915Z,10.38
2019-02-15T17:46:44.904Z,10.22
2019-02-15T17:47:44.953Z,10.25
2019-02-15T17:49:37.935Z,10.17
2019-02-15T17:50:37.994Z,10.16
2019-02-15T17:52:30.985Z,10.12
2019-02-15T17:53:31.035Z,9.99
2019-02-15T17:55:24.019Z,9.98
2019-02-15T17:56:24.109Z,9.94
2019-02-15T17:58:17.144Z,9.91
2019-02-15T17:59:17.156Z,9.84
2019-02-15T18:01:10.100Z,9.82
2019-02-15T18:02:10.159Z,9.79
2019-02-15T18:04:03.153Z,9.69
2019-02-15T18:05:03.210Z,9.73
2019-02-15T18:06:56.199Z,9.64
2019-02-15T18:07:56.248Z,9.65
2019-02-15T18:09:49.236Z,9.56
2019-02-15T18:10:49.302Z,9.56
2019-02-15T18:12:42.283Z,9.59
2019-02-15T18:13:42.327Z,9.48
2019-02-15T18:15:35.310Z,9.43
2019-02-15T18:16:35.368Z,9.37
2019-02-15T18:18:28.354Z,9.39
2019-02-15T18:19:28.405Z,9.28
2019-02-15T18:21:21.391Z,9.26
2019-02-15T18:22:21.447Z,9.22
2019-02-15T18:24:14.439Z,9.28
2019-02-15T18:25:14.485Z,9.22
2019-02-15T18:27:07.500Z,9.22
2019-02-15T18:28:07.565Z,9.25
2019-02-15T18:30:00.543Z,9.25
2019-02-15T18:31:00.577Z,9.22
2019-02-15T18:32:53.556Z,9.36
2019-02-15T18:33:53.608Z,9.41
2019-02-15T18:35:47.108Z,9.34
2019-02-15T18:36:47.150Z,9.36
2019-02-15T18:38:40.726Z,9.39
2019-02-15T18:39:40.191Z,9.28
2019-02-15T18:41:33.178Z,9.25
2019-02-15T18:42:33.230Z,9.19
2019-02-15T18:44:26.219Z,9.28
2019-02-15T18:45:26.261Z,9.19
2019-02-15T18:47:19.281Z,9.16
2019-02-15T18:48:19.304Z,9.10
2019-02-15T18:50:12.285Z,9.02
2019-02-15T18:51:12.339Z,8.99
2019-02-15T18:53:05.346Z,8.81